Time;durP1;ratioP1;P1;durP2;ratioP2;P2;SDS_P1;SDS_P2;PMS_P1;PMS_P2;Temp;Humidity;BMP_temperature;BMP_pressure;BME280_temperature;BME280_humidity;BME280_pressure;Samples;Min_cycle;Max_cycle;Signal;HPM_P1;HPM_P2
2024/04/07 00:02:18;;;;;;;;;;;;;;;13.36;75.16;100433.38;111777;1260;22321;-78
2024/04/07 00:05:09;;;;;;;15.90;4.30;;;;;;;13.29;75.51;100440.79;111735;1262;22249;-79
2024/04/07 00:07:58;;;;;;;;;;;;;;;13.25;75.32;100441.46;111730;1263;23553;-78
2024/04/07 00:10:48;;;;;;;12.30;3.90;;;;;;;13.21;75.22;100444.17;111536;1260;22332;-78
2024/04/07 00:13:37;;;;;;;;;;;;;;;13.19;75.53;100443.73;111697;1262;22325;-78
2024/04/07 00:16:27;;;;;;;12.00;3.80;;;;;;;13.14;75.87;100450.76;111759;1257;22207;-77
2024/04/07 00:19:17;;;;;;;;;;;;;;;13.09;75.67;100451.16;111710;1257;22386;-79
2024/04/07 00:22:07;;;;;;;13.00;4.40;;;;;;;13.04;75.84;100454.45;111817;1260;22262;-80
2024/04/07 00:24:56;;;;;;;;;;;;;;;13.00;75.53;100451.23;111733;1265;23162;-77
2024/04/07 00:27:47;;;;;;;10.50;3.90;;;;;;;12.97;75.43;100450.21;111820;1265;22419;-78
2024/04/07 00:30:37;;;;;;;14.00;4.70;;;;;;;12.95;75.47;100450.40;111813;1260;22302;-79
2024/04/07 00:33:26;;;;;;;;;;;;;;;12.93;75.53;100454.85;111670;1260;22511;-78
2024/04/07 00:36:16;;;;;;;15.00;4.50;;;;;;;12.89;75.53;100454.05;111700;1260;22358;-80
2024/04/07 00:39:08;;;;;;;11.50;3.70;;;;;;;12.88;75.73;100449.50;111783;1263;22329;-79
2024/04/07 00:41:58;;;;;;;13.90;4.40;;;;;;;12.85;75.97;100447.23;111785;1259;22182;-79
2024/04/07 00:44:48;;;;;;;14.70;4.30;;;;;;;12.82;75.93;100448.05;111761;1261;22728;-78
2024/04/07 00:47:37;;;;;;;;;;;;;;;12.81;76.01;100442.93;111717;1263;23127;-78
2024/04/07 00:50:28;;;;;;;14.50;5.40;;;;;;;12.76;76.53;100441.85;111782;1260;22333;-79
2024/04/07 00:53:19;;;;;;;12.80;4.80;;;;;;;12.72;76.46;100444.95;111739;1261;22983;-78
2024/04/07 00:56:09;;;;;;;13.80;5.20;;;;;;;12.69;76.39;100443.95;111770;1251;22184;-78
2024/04/07 00:59:00;;;;;;;15.00;4.80;;;;;;;12.66;76.47;100446.86;111717;1265;22197;-80
2024/04/07 01:01:49;;;;;;;;;;;;;;;12.62;76.84;100445.58;111812;1265;23281;-78
2024/04/07 01:04:39;;;;;;;14.50;5.40;;;;;;;12.55;76.92;100450.46;111763;1263;22990;-78
2024/04/07 01:07:30;;;;;;;14.00;5.00;;;;;;;12.52;76.68;100449.56;111805;1257;22815;-78
2024/04/07 01:10:20;;;;;;;14.40;4.90;;;;;;;12.49;76.57;100442.18;111669;1257;22188;-77
2024/04/07 01:13:11;;;;;;;12.50;4.80;;;;;;;12.47;76.78;100437.41;111788;1257;22301;-78
2024/04/07 01:16:02;;;;;;;13.80;5.00;;;;;;;12.44;77.00;100441.90;111812;1265;22376;-79
2024/04/07 01:18:52;;;;;;;14.60;5.00;;;;;;;12.41;76.99;100439.13;111682;1266;22903;-78
2024/04/07 01:21:41;;;;;;;;;;;;;;;12.39;77.11;100438.36;111668;1266;22302;-78
2024/04/07 01:24:31;;;;;;;11.90;4.70;;;;;;;12.35;77.01;100431.54;111693;1258;22224;-79
2024/04/07 01:27:22;;;;;;;10.30;4.10;;;;;;;12.34;77.20;100432.91;111751;1263;22279;-79
2024/04/07 01:30:11;;;;;;;;;;;;;;;12.31;77.25;100428.17;111752;1263;23060;-79
2024/04/07 01:33:01;;;;;;;15.10;4.60;;;;;;;12.27;77.80;100424.35;111777;1265;22259;-78
2024/04/07 01:35:51;;;;;;;13.60;4.70;;;;;;;12.22;78.50;100420.81;111790;1265;22190;-78
2024/04/07 01:38:40;;;;;;;;;;;;;;;12.18;78.27;100418.56;111755;1259;23250;-77
2024/04/07 01:41:30;;;;;;;14.80;4.90;;;;;;;12.16;78.16;100416.52;111724;1261;22279;-78
2024/04/07 01:44:19;;;;;;;;;;;;;;;12.16;78.12;100414.83;111753;1260;22966;-78
2024/04/07 01:47:09;;;;;;;9.90;3.80;;;;;;;12.16;78.40;100411.52;111706;1262;22340;-77
2024/04/07 01:50:00;;;;;;;13.50;4.10;;;;;;;12.16;78.69;100410.39;111577;1265;22093;-78
2024/04/07 01:52:50;;;;;;;9.40;3.30;;;;;;;12.15;78.74;100412.27;111698;1266;22178;-78
2024/04/07 01:55:42;;;;;;;11.70;4.10;;;;;;;12.15;79.26;100412.77;111766;1262;22973;-79
2024/04/07 01:58:32;;;;;;;10.80;3.60;;;;;;;12.13;78.89;100414.88;111748;1256;23586;-78
2024/04/07 02:01:23;;;;;;;9.40;3.50;;;;;;;12.11;79.01;100412.00;111755;1257;22702;-78
2024/04/07 02:04:12;;;;;;;;;;;;;;;12.10;78.80;100408.37;111699;1257;22474;-78
2024/04/07 02:07:02;;;;;;;10.30;3.30;;;;;;;12.08;78.82;100402.34;111779;1263;22176;-77
2024/04/07 02:09:53;;;;;;;10.10;3.80;;;;;;;12.07;78.82;100398.25;111645;1265;22275;-78
2024/04/07 02:12:43;;;;;;;9.00;3.30;;;;;;;12.04;79.29;100399.13;111716;1265;22211;-79
2024/04/07 02:15:35;;;;;;;;;;;;;;;12.02;79.56;100400.62;111711;1265;22543;-78
2024/04/07 02:18:26;;;;;;;11.40;3.60;;;;;;;11.98;79.35;100402.94;111748;1262;22307;-78
2024/04/07 02:21:17;;;;;;;12.50;3.60;;;;;;;11.95;78.92;100402.84;111754;1257;22259;-79
2024/04/07 02:24:07;;;;;;;11.70;3.80;;;;;;;11.94;78.84;100397.89;111661;1260;22219;-78
2024/04/07 02:26:58;;;;;;;14.00;4.60;;;;;;;11.91;78.93;100393.87;111687;1265;22375;-78
2024/04/07 02:29:48;;;;;;;12.10;3.90;;;;;;;11.89;78.81;100394.86;111699;1265;22225;-79
2024/04/07 02:32:38;;;;;;;11.80;4.30;;;;;;;11.88;78.81;100393.11;111651;1263;22447;-78
2024/04/07 02:35:29;;;;;;;10.10;3.70;;;;;;;11.86;78.77;100394.40;111689;1265;22209;-77
2024/04/07 02:38:19;;;;;;;13.00;4.30;;;;;;;11.85;78.73;100397.04;111714;1265;22207;-78
2024/04/07 02:41:10;;;;;;;12.00;4.20;;;;;;;11.83;78.86;100397.77;111657;1255;22210;-78
2024/04/07 02:44:00;;;;;;;13.30;3.90;;;;;;;11.81;78.88;100397.54;111708;1260;22211;-78
2024/04/07 02:49:58;;;;;;;14.60;3.70;;;;;;;11.77;79.61;100401.93;111721;1263;22236;-77
2024/04/07 02:52:49;;;;;;;8.90;2.80;;;;;;;11.74;80.03;100399.54;111684;1259;22107;-77
2024/04/07 02:55:37;;;;;;;;;;;;;;;11.71;79.97;100398.38;111778;1261;23117;-77
2024/04/07 02:58:28;;;;;;;11.00;3.30;;;;;;;11.68;80.41;100403.06;111646;1254;22339;-79
2024/04/07 03:01:18;;;;;;;10.10;3.10;;;;;;;11.67;80.02;100400.25;111689;1265;22239;-77
2024/04/07 03:04:09;;;;;;;10.00;3.60;;;;;;;11.67;80.17;100402.27;111685;1258;22196;-78
2024/04/07 03:07:00;;;;;;;12.50;3.30;;;;;;;11.66;80.19;100401.27;111781;1265;22899;-78
2024/04/07 03:09:55;;;;;;;10.00;3.60;;;;;;;11.64;80.09;100401.77;111728;1265;22783;-78
2024/04/07 03:12:46;;;;;;;11.10;3.60;;;;;;;11.62;80.03;100399.56;111713;1265;22884;-81
2024/04/07 03:15:36;;;;;;;10.00;3.20;;;;;;;11.60;80.28;100400.70;111593;1266;22210;-78
2024/04/07 03:18:25;;;;;;;;;;;;;;;11.58;79.86;100401.13;111759;1263;22389;-78
2024/04/07 03:21:16;;;;;;;9.60;4.00;;;;;;;11.55;79.99;100397.05;111751;1265;22193;-82
2024/04/07 03:24:07;;;;;;;12.30;5.10;;;;;;;11.53;80.08;100397.08;111745;1263;22922;-78
2024/04/07 03:26:57;;;;;;;9.70;4.90;;;;;;;11.51;80.53;100399.77;111710;1265;22913;-79
2024/04/07 03:29:47;;;;;;;10.50;5.20;;;;;;;11.46;80.68;100407.98;111713;1263;22275;-79
2024/04/07 03:32:38;;;;;;;12.70;4.90;;;;;;;11.43;80.34;100406.85;111665;1263;22962;-77
2024/04/07 03:35:28;;;;;;;10.00;4.00;;;;;;;11.39;80.25;100400.94;111753;1262;22162;-79
2024/04/07 03:38:19;;;;;;;9.40;3.40;;;;;;;11.37;80.07;100399.69;111748;1265;22313;-79
2024/04/07 03:41:09;;;;;;;10.50;4.40;;;;;;;11.35;80.09;100397.11;111721;1265;22217;-77
2024/04/07 03:43:59;;;;;;;10.80;3.70;;;;;;;11.33;80.03;100395.13;111760;1265;22211;-77
2024/04/07 03:46:49;;;;;;;9.00;3.20;;;;;;;11.31;80.17;100394.52;111707;1265;22218;-77
2024/04/07 03:49:40;;;;;;;9.90;4.20;;;;;;;11.28;80.24;100397.23;111729;1265;22303;-78
2024/04/07 03:52:29;;;;;;;;;;;;;;;11.25;80.41;100399.15;111808;1265;22328;-77
2024/04/07 03:55:19;;;;;;;10.20;2.80;;;;;;;11.21;80.23;100401.27;111656;1258;22216;-78
2024/04/07 03:58:08;;;;;;;;;;;;;;;11.19;80.17;100404.58;111731;1260;22327;-78
2024/04/07 04:01:02;;;;;;;10.20;2.70;;;;;;;11.15;80.29;100404.86;109694;1265;24318;-85
2024/04/07 04:03:52;;;;;;;10.50;2.90;;;;;;;11.11;80.41;100407.97;108961;1266;22726;-84
2024/04/07 04:06:43;;;;;;;9.50;3.00;;;;;;;11.06;80.41;100408.23;109087;1265;22530;-85
2024/04/07 04:09:35;;;;;;;10.20;2.50;;;;;;;11.03;80.29;100408.95;109015;1264;22618;-85
2024/04/07 04:12:29;;;;;;;10.30;2.60;;;;;;;11.00;80.46;100406.20;109041;1260;22525;-84
2024/04/07 04:15:20;;;;;;;11.10;3.00;;;;;;;10.97;80.49;100405.72;109102;1265;22622;-84
2024/04/07 04:18:12;;;;;;;8.80;2.50;;;;;;;10.93;80.50;100405.21;108951;1265;23191;-84
2024/04/07 04:21:07;;;;;;;10.40;3.00;;;;;;;10.91;80.59;100406.79;109080;1265;22514;-83
2024/04/07 04:23:59;;;;;;;10.60;3.40;;;;;;;10.87;80.70;100406.64;108947;1265;24263;-84
2024/04/07 04:26:50;;;;;;;10.30;4.00;;;;;;;10.85;80.89;100403.59;109097;1263;22528;-84
2024/04/07 04:29:41;;;;;;;10.10;3.50;;;;;;;10.82;80.94;100399.92;109216;1263;23889;-84
2024/04/07 04:32:32;;;;;;;9.90;2.80;;;;;;;10.79;80.88;100401.40;109138;1265;22661;-84
2024/04/07 04:35:23;;;;;;;13.00;3.50;;;;;;;10.78;80.90;100399.54;109166;1265;22637;-84
2024/04/07 04:38:14;;;;;;;8.70;3.40;;;;;;;10.77;81.06;100399.59;108997;1262;22729;-85
2024/04/07 04:41:06;;;;;;;12.90;4.00;;;;;;;10.77;81.64;100398.50;109006;1266;22638;-84
2024/04/07 04:43:58;;;;;;;12.50;4.00;;;;;;;10.75;81.98;100396.84;108967;1260;22520;-83
2024/04/07 04:46:50;;;;;;;11.30;3.90;;;;;;;10.75;82.22;100394.76;109216;1265;22640;-85
2024/04/07 04:49:42;;;;;;;13.40;3.50;;;;;;;10.75;82.99;100390.81;108937;1265;23328;-85
2024/04/07 04:52:34;;;;;;;14.10;3.70;;;;;;;10.76;83.49;100388.48;109062;1265;24216;-85
2024/04/07 04:55:26;;;;;;;10.20;4.60;;;;;;;10.77;84.53;100388.83;108833;1260;24226;-83
2024/04/07 04:58:18;;;;;;;10.40;4.40;;;;;;;10.78;85.03;100397.30;109001;1265;24216;-86
2024/04/07 05:01:17;;;;;;;14.70;5.20;;;;;;;10.79;85.58;100401.48;109038;1265;22546;-86
2024/04/07 05:04:08;;;;;;;13.70;5.00;;;;;;;10.81;85.88;100399.86;108844;1260;24205;-86
2024/04/07 05:06:59;;;;;;;14.10;5.90;;;;;;;10.84;86.28;100403.13;108993;1263;22562;-84
2024/04/07 05:09:51;;;;;;;13.20;5.80;;;;;;;10.88;86.85;100403.27;108958;1265;25418;-85
2024/04/07 05:12:44;;;;;;;16.30;6.60;;;;;;;10.92;87.30;100407.91;108935;1265;22527;-85
2024/04/07 05:15:35;;;;;;;14.00;7.00;;;;;;;10.97;87.69;100409.08;108979;1248;24184;-84
2024/04/07 05:18:27;;;;;;;18.80;6.40;;;;;;;11.02;88.31;100409.84;109071;1264;22598;-84
2024/04/07 05:21:19;;;;;;;16.70;7.40;;;;;;;11.07;88.60;100408.00;108958;1263;22524;-84
2024/04/07 05:24:10;;;;;;;14.40;5.90;;;;;;;11.14;88.46;100411.95;109030;1263;22989;-83
2024/04/07 05:27:03;;;;;;;18.50;7.70;;;;;;;11.20;88.82;100414.01;109095;1266;22627;-83
2024/04/07 05:29:54;;;;;;;16.40;7.60;;;;;;;11.26;89.28;100412.18;109171;1265;22697;-85
2024/04/07 05:32:45;;;;;;;18.30;7.20;;;;;;;11.31;89.58;100407.35;108859;1266;24359;-83
2024/04/07 05:35:36;;;;;;;13.80;6.10;;;;;;;11.37;89.57;100405.87;108822;1257;22601;-84
2024/04/07 05:38:26;;;;;;;16.10;7.30;;;;;;;11.45;89.67;100408.25;108889;1266;22558;-84
2024/04/07 05:41:17;;;;;;;16.90;6.30;;;;;;;11.53;90.38;100408.17;108748;1266;24197;-84
2024/04/07 05:44:06;;;;;;;;;;;;;;;11.63;90.59;100408.98;108747;1266;25364;-83
2024/04/07 05:46:57;;;;;;;20.30;6.90;;;;;;;11.71;91.13;100412.41;108896;1265;22735;-85
2024/04/07 05:49:49;;;;;;;14.20;5.60;;;;;;;11.80;91.10;100410.94;109021;1265;22549;-85
2024/04/07 05:52:41;;;;;;;13.80;6.80;;;;;;;11.90;91.43;100411.55;108742;1256;23243;-86
2024/04/07 05:55:36;;;;;;;20.00;9.10;;;;;;;11.99;91.81;100413.79;109111;1265;25459;-85
2024/04/07 05:58:28;;;;;;;19.30;8.90;;;;;;;12.10;91.94;100411.27;108999;1265;24203;-85
2024/04/07 06:01:19;;;;;;;25.30;11.00;;;;;;;12.21;92.08;100410.36;109108;1265;22581;-85
2024/04/07 06:04:10;;;;;;;28.80;12.50;;;;;;;12.32;92.21;100411.14;108837;1265;25301;-86
2024/04/07 06:07:03;;;;;;;25.30;12.10;;;;;;;12.44;92.35;100413.99;108650;1266;23117;-85
2024/04/07 06:09:55;;;;;;;21.40;8.30;;;;;;;12.55;92.39;100413.96;108667;1266;22564;-85
2024/04/07 06:12:46;;;;;;;15.50;5.70;;;;;;;12.67;92.55;100413.31;108577;1266;22508;-84
2024/04/07 06:15:37;;;;;;;20.10;5.80;;;;;;;12.79;92.51;100415.50;108386;1266;22555;-84
2024/04/07 06:18:28;;;;;;;13.40;5.30;;;;;;;12.91;92.60;100410.36;108604;1265;22593;-85
2024/04/07 06:21:21;;;;;;;10.20;3.80;;;;;;;13.04;92.67;100408.69;108842;1265;22527;-86
2024/04/07 06:24:12;;;;;;;10.50;4.10;;;;;;;13.18;92.47;100405.48;108429;1265;22570;-85
2024/04/07 06:27:05;;;;;;;10.20;3.80;;;;;;;13.30;92.11;100405.58;108603;1265;22544;-85
2024/04/07 06:29:58;;;;;;;12.20;4.00;;;;;;;13.40;91.95;100404.70;108932;1265;22638;-85
2024/04/07 06:32:50;;;;;;;8.90;2.70;;;;;;;13.51;92.08;100401.71;108856;1265;23069;-85
2024/04/07 06:35:42;;;;;;;9.60;3.20;;;;;;;13.63;92.13;100405.70;108653;1265;22554;-84
2024/04/07 06:38:32;;;;;;;9.30;3.20;;;;;;;13.77;91.74;100406.39;108533;1265;22629;-84
2024/04/07 06:41:23;;;;;;;14.30;3.90;;;;;;;13.88;91.72;100404.95;108826;1265;22626;-85
2024/04/07 06:44:14;;;;;;;10.40;3.40;;;;;;;14.01;91.83;100410.16;108784;1265;22626;-85
2024/04/07 06:47:06;;;;;;;11.90;4.30;;;;;;;14.14;91.81;100413.98;108670;1266;22582;-83
2024/04/07 06:50:00;;;;;;;17.80;5.10;;;;;;;14.30;91.73;100416.05;108601;1266;25575;-83
2024/04/07 06:52:50;;;;;;;11.60;3.30;;;;;;;14.43;91.41;100413.90;108669;1266;22528;-83
2024/04/07 06:55:41;;;;;;;14.10;3.30;;;;;;;14.52;90.81;100418.40;108662;1256;24188;-83
2024/04/07 06:58:32;;;;;;;10.90;2.60;;;;;;;14.60;90.75;100425.75;108795;1266;23152;-84
2024/04/07 07:01:23;;;;;;;7.80;2.50;;;;;;;14.69;90.57;100427.69;108882;1266;22575;-82
2024/04/07 07:04:13;;;;;;;9.30;2.50;;;;;;;14.79;90.50;100426.71;108930;1265;24234;-84
2024/04/07 07:07:04;;;;;;;9.90;2.90;;;;;;;14.90;90.35;100425.69;109110;1265;22559;-84
2024/04/07 07:09:55;;;;;;;9.30;2.40;;;;;;;15.02;90.28;100425.18;108380;1266;22656;-82
2024/04/07 07:12:43;;;;;;;;;;;;;;;15.15;90.30;100423.53;108603;1266;23465;-82
2024/04/07 07:15:34;;;;;;;10.30;2.50;;;;;;;15.31;90.10;100425.19;108670;1265;23224;-84
2024/04/07 07:18:25;;;;;;;7.40;2.10;;;;;;;15.45;89.78;100425.13;108414;1265;26685;-85
2024/04/07 07:21:19;;;;;;;6.70;2.10;;;;;;;15.59;89.68;100427.02;108851;1253;23888;-87
2024/04/07 07:24:13;;;;;;;8.30;1.80;;;;;;;15.74;89.48;100426.00;108860;1265;25201;-87
2024/04/07 07:27:09;;;;;;;7.30;2.20;;;;;;;15.89;88.98;100420.40;108825;1266;22626;-87
2024/04/07 07:30:01;;;;;;;8.30;1.80;;;;;;;16.01;88.54;100414.95;108739;1266;24277;-89
2024/04/07 07:32:53;;;;;;;8.70;2.20;;;;;;;16.14;88.31;100413.83;108442;1266;22720;-88
2024/04/07 07:35:48;;;;;;;6.00;2.00;;;;;;;16.26;88.19;100417.55;109201;1265;25208;-88
2024/04/07 07:38:40;;;;;;;6.60;2.00;;;;;;;16.36;87.77;100416.27;109795;1266;22968;-89
2024/04/07 07:41:33;;;;;;;10.30;2.40;;;;;;;16.47;87.52;100426.07;110068;1266;23284;-88
2024/04/07 07:44:25;;;;;;;9.80;2.40;;;;;;;16.58;87.32;100423.57;110052;1263;22558;-89
2024/04/07 07:47:18;;;;;;;7.60;2.30;;;;;;;16.68;86.97;100425.79;109385;1266;22450;-89
2024/04/07 07:50:11;;;;;;;9.40;2.20;;;;;;;16.79;86.63;100421.77;109403;1266;23882;-87
2024/04/07 07:53:03;;;;;;;9.10;2.50;;;;;;;16.90;86.15;100416.44;109248;1265;24312;-88
2024/04/07 07:55:56;;;;;;;8.10;1.80;;;;;;;17.03;85.92;100406.98;108897;1265;22519;-86
2024/04/07 07:58:49;;;;;;;6.40;1.70;;;;;;;17.15;85.65;100400.17;109007;1244;24195;-87
2024/04/07 08:01:43;;;;;;;5.50;1.60;;;;;;;17.28;85.58;100404.20;109094;1266;25907;-88
2024/04/07 08:04:37;;;;;;;11.10;1.70;;;;;;;17.43;85.13;100405.66;109614;1265;22544;-87
2024/04/07 08:07:29;;;;;;;8.00;2.30;;;;;;;17.58;84.93;100410.00;109514;1266;24233;-88
2024/04/07 08:10:23;;;;;;;10.10;2.10;;;;;;;17.70;84.24;100413.20;109374;1265;23178;-88
2024/04/07 08:13:16;;;;;;;8.20;1.80;;;;;;;17.84;84.05;100417.98;109879;1264;23310;-87
2024/04/07 08:16:10;;;;;;;7.50;1.80;;;;;;;17.97;83.61;100422.19;109006;1262;22573;-89
2024/04/07 08:19:02;;;;;;;7.10;1.80;;;;;;;18.08;83.30;100425.23;108958;1265;427194;-87
2024/04/07 08:21:56;;;;;;;6.00;1.50;;;;;;;18.18;82.84;100423.59;109847;1265;22562;-89
2024/04/07 08:24:47;;;;;;;7.20;1.70;;;;;;;18.29;82.67;100421.65;108821;1266;22514;-89
2024/04/07 08:27:38;;;;;;;7.70;2.00;;;;;;;18.39;82.05;100421.13;109100;1265;22643;-88
2024/04/07 08:30:31;;;;;;;9.70;1.80;;;;;;;18.50;81.74;100418.79;109041;1265;24039;-87
2024/04/07 08:33:23;;;;;;;6.00;1.60;;;;;;;18.65;81.75;100415.13;109374;1266;24171;-89
2024/04/07 08:36:15;;;;;;;6.70;1.30;;;;;;;18.78;81.12;100406.55;110964;1266;24267;-87
2024/04/07 08:39:06;;;;;;;6.70;1.40;;;;;;;18.88;80.40;100407.83;109300;1265;22551;-88
2024/04/07 08:42:00;;;;;;;6.60;1.50;;;;;;;18.98;80.05;100405.19;108943;1265;24398;-89
2024/04/07 08:44:54;;;;;;;5.60;1.30;;;;;;;19.09;79.70;100409.41;109441;1265;22569;-88
2024/04/07 08:47:47;;;;;;;3.50;1.10;;;;;;;19.25;79.35;100410.85;110485;1264;24333;-88
2024/04/07 08:50:40;;;;;;;6.00;1.40;;;;;;;19.42;78.70;100405.86;110088;1265;22600;-89
2024/04/07 08:53:32;;;;;;;4.70;1.40;;;;;;;19.52;78.49;100400.13;109372;1258;22747;-89
2024/04/07 08:56:24;;;;;;;6.70;1.50;;;;;;;19.63;78.22;100401.36;111872;1263;22333;-89
2024/04/07 08:59:26;;;;;;;5.30;1.20;;;;;;;19.77;77.92;100400.77;110149;1266;22503;-88
2024/04/07 09:02:20;;;;;;;5.60;1.50;;;;;;;19.94;77.19;100401.73;109236;1265;23304;-89
2024/04/07 09:05:13;;;;;;;4.80;1.10;;;;;;;20.11;76.74;100402.89;109209;1265;23867;-88
2024/04/07 09:08:09;;;;;;;4.10;1.20;;;;;;;20.34;75.80;100412.78;110070;1265;24340;-88
2024/04/07 09:11:02;;;;;;;3.30;0.90;;;;;;;20.56;74.73;100413.14;109931;1265;22511;-87
2024/04/07 09:13:55;;;;;;;4.50;0.80;;;;;;;20.73;73.96;100402.65;109142;1265;22551;-88
2024/04/07 09:16:47;;;;;;;4.80;1.00;;;;;;;20.91;73.22;100398.58;109115;1266;22520;-87
2024/04/07 09:19:41;;;;;;;4.00;0.90;;;;;;;21.09;73.08;100399.40;109146;1257;24388;-86
2024/04/07 09:22:33;;;;;;;3.50;0.80;;;;;;;21.27;71.53;100395.76;109390;1263;25392;-87
2024/04/07 09:25:26;;;;;;;6.30;1.10;;;;;;;21.44;71.22;100395.44;108888;1265;22993;-87
2024/04/07 09:28:18;;;;;;;3.70;1.10;;;;;;;21.56;70.67;100404.55;109067;1265;23242;-89
2024/04/07 09:31:09;;;;;;;5.00;1.00;;;;;;;21.67;70.62;100399.38;109018;1266;24723;-87
2024/04/07 09:34:02;;;;;;;4.10;1.00;;;;;;;21.79;70.30;100399.80;109369;1265;22562;-89
2024/04/07 09:36:55;;;;;;;3.50;0.90;;;;;;;21.88;69.57;100393.23;109275;1266;22552;-88
2024/04/07 09:39:47;;;;;;;4.30;1.00;;;;;;;21.94;69.23;100390.79;108997;1265;22562;-88
2024/04/07 09:42:41;;;;;;;4.30;1.10;;;;;;;22.05;69.15;100387.61;109489;1265;22518;-88
2024/04/07 09:45:33;;;;;;;6.00;1.20;;;;;;;22.14;68.92;100385.02;109265;1265;22553;-89
2024/04/07 09:48:26;;;;;;;6.10;1.10;;;;;;;22.20;68.58;100378.91;109409;1261;22523;-88
2024/04/07 09:51:21;;;;;;;3.10;0.90;;;;;;;22.29;68.09;100368.21;109505;1266;22514;-89
2024/04/07 09:54:20;;;;;;;3.50;1.00;;;;;;;22.38;67.70;100366.11;109309;1264;22574;-88
2024/04/07 09:57:13;;;;;;;4.00;1.10;;;;;;;22.50;67.04;100366.87;109136;1266;23311;-87
2024/04/07 10:00:05;;;;;;;5.10;1.20;;;;;;;22.61;66.96;100363.09;109860;1265;22813;-88
2024/04/07 10:02:58;;;;;;;3.90;0.90;;;;;;;22.72;66.60;100356.98;109131;1261;22606;-88
2024/04/07 10:05:51;;;;;;;4.80;1.30;;;;;;;22.83;66.56;100356.39;109297;1258;24068;-88
2024/04/07 10:08:42;;;;;;;3.40;0.80;;;;;;;22.93;66.32;100354.02;109452;1265;22552;-87
2024/04/07 10:11:33;;;;;;;4.50;1.00;;;;;;;23.05;66.00;100349.20;109327;1263;24986;-88
2024/04/07 10:14:25;;;;;;;5.40;1.50;;;;;;;23.16;65.59;100347.38;109241;1258;22639;-86
2024/04/07 10:17:18;;;;;;;23.50;12.10;;;;;;;23.28;65.53;100340.90;109290;1261;22274;-88
2024/04/07 10:20:10;;;;;;;6.10;1.60;;;;;;;23.42;65.28;100341.98;109096;1257;24250;-88
2024/04/07 10:23:03;;;;;;;3.90;0.90;;;;;;;23.56;63.94;100338.32;109263;1264;22604;-88
2024/04/07 10:26:03;;;;;;;4.10;0.90;;;;;;;23.72;63.86;100334.00;109115;1263;22526;-87
2024/04/07 10:28:56;;;;;;;4.60;1.00;;;;;;;23.80;63.53;100327.59;109229;1264;22520;-87
2024/04/07 10:31:47;;;;;;;3.00;0.60;;;;;;;23.94;62.90;100321.20;109272;1265;23256;-87
2024/04/07 10:34:55;;;;;;;3.90;1.00;;;;;;;24.07;62.00;100321.30;109540;1263;22742;-87
2024/04/07 10:37:53;;;;;;;3.50;0.80;;;;;;;24.14;62.00;100319.63;109413;1263;22604;-87
2024/04/07 10:40:46;;;;;;;5.00;1.00;;;;;;;24.24;62.00;100321.39;111727;1262;22377;-89
2024/04/07 10:43:37;;;;;;;5.50;0.90;;;;;;;24.39;61.54;100321.64;109436;1266;24052;-80
2024/04/07 10:46:28;;;;;;;6.00;1.30;;;;;;;24.51;60.42;100320.89;109386;1257;22636;-86
2024/04/07 10:49:20;;;;;;;4.70;1.10;;;;;;;24.55;60.49;100320.04;109270;1265;22664;-86
2024/04/07 10:52:19;;;;;;;5.50;1.10;;;;;;;24.61;60.29;100325.32;109298;1266;22591;-86
2024/04/07 10:55:11;;;;;;;5.50;1.30;;;;;;;24.69;60.42;100324.34;109475;1265;23267;-86
2024/04/07 10:58:02;;;;;;;3.90;1.00;;;;;;;24.74;59.72;100318.75;109377;1265;22625;-86
2024/04/07 11:00:52;;;;;;;4.00;0.80;;;;;;;24.78;59.41;100321.73;109497;1247;22520;-83
2024/04/07 11:03:44;;;;;;;4.50;1.30;;;;;;;24.81;59.22;100313.31;109518;1264;23339;-86
2024/04/07 11:06:36;;;;;;;6.00;1.40;;;;;;;24.88;58.96;100309.41;109371;1265;22539;-85
2024/04/07 11:09:30;;;;;;;5.60;1.30;;;;;;;24.94;59.20;100307.60;109421;1257;22516;-84
2024/04/07 11:12:27;;;;;;;4.40;0.90;;;;;;;24.99;58.82;100309.17;109620;1265;22642;-85
2024/04/07 11:15:20;;;;;;;3.10;0.90;;;;;;;25.07;58.13;100310.73;109494;1265;22582;-86
2024/04/07 11:18:18;;;;;;;5.70;1.00;;;;;;;25.13;58.06;100304.11;109561;1261;22641;-85
2024/04/07 11:21:09;;;;;;;6.50;2.00;;;;;;;25.18;58.09;100305.88;109496;1260;22629;-86
2024/04/07 11:24:02;;;;;;;4.30;1.10;;;;;;;25.19;57.48;100308.30;109187;1266;25380;-86
2024/04/07 11:26:54;;;;;;;4.30;0.90;;;;;;;25.21;56.74;100311.73;109422;1257;22622;-87
2024/04/07 11:29:46;;;;;;;7.70;0.90;;;;;;;25.23;56.21;100312.63;109383;1265;24251;-86
2024/04/07 11:32:39;;;;;;;11.10;2.00;;;;;;;25.27;55.60;100311.41;109373;1260;25480;-83
2024/04/07 11:35:32;;;;;;;4.80;1.10;;;;;;;25.31;55.29;100314.94;109345;1263;24228;-87
2024/04/07 11:38:22;;;;;;;8.50;2.10;;;;;;;25.37;55.78;100312.88;109437;1265;22857;-88
2024/04/07 11:41:13;;;;;;;10.80;2.00;;;;;;;25.41;55.75;100314.37;109457;1261;22601;-86
2024/04/07 11:44:04;;;;;;;16.20;7.60;;;;;;;25.46;55.70;100323.83;109332;1266;25157;-86
2024/04/07 11:46:55;;;;;;;32.00;19.10;;;;;;;25.52;55.07;100327.98;109230;1265;22523;-86
2024/04/07 11:49:46;;;;;;;18.10;8.30;;;;;;;25.58;55.39;100326.04;109285;1258;22634;-86
2024/04/07 11:52:38;;;;;;;23.00;13.00;;;;;;;25.63;55.33;100322.95;109353;1265;24353;-85
2024/04/07 11:55:29;;;;;;;15.90;7.20;;;;;;;25.73;55.19;100329.35;109449;1265;25273;-86
2024/04/07 11:58:20;;;;;;;8.20;2.40;;;;;;;25.84;54.29;100328.70;109521;1265;25370;-86
2024/04/07 12:01:10;;;;;;;73.50;55.80;;;;;;;25.94;54.57;100326.98;109559;1260;22564;-86
2024/04/07 12:04:01;;;;;;;61.90;42.10;;;;;;;25.98;54.06;100322.04;109539;1265;24377;-85
2024/04/07 12:06:51;;;;;;;27.60;18.80;;;;;;;26.03;54.36;100322.19;109477;1257;25317;-85
2024/04/07 12:09:43;;;;;;;16.90;7.90;;;;;;;26.10;53.63;100319.96;109508;1265;24287;-85
2024/04/07 12:12:33;;;;;;;120.80;97.90;;;;;;;26.19;53.82;100318.20;109518;1257;22551;-86
2024/04/07 12:15:24;;;;;;;25.00;14.80;;;;;;;26.28;53.18;100321.54;109433;1265;25394;-85
2024/04/07 12:18:15;;;;;;;43.90;28.80;;;;;;;26.36;53.08;100321.92;109419;1257;22578;-86
2024/04/07 12:21:06;;;;;;;338.90;247.70;;;;;;;26.40;53.17;100318.69;109481;1263;22547;-87
2024/04/07 12:24:00;;;;;;;101.10;66.30;;;;;;;26.45;52.98;100315.50;109459;1265;22540;-86
2024/04/07 12:26:51;;;;;;;32.70;17.60;;;;;;;26.55;52.19;100311.77;109642;1263;22580;-87
2024/04/07 12:29:42;;;;;;;12.70;4.90;;;;;;;26.67;51.97;100306.88;109671;1265;22489;-87
2024/04/07 12:32:34;;;;;;;8.70;1.20;;;;;;;26.75;50.75;100296.71;109605;1258;22657;-86
2024/04/07 12:35:25;;;;;;;3.90;0.80;;;;;;;26.78;49.56;100297.24;109414;1265;22523;-85
2024/04/07 12:38:15;;;;;;;2.60;0.40;;;;;;;26.87;48.18;100298.73;109184;1266;22591;-86
2024/04/07 12:41:06;;;;;;;2.10;0.40;;;;;;;27.03;47.00;100298.90;109244;1266;22546;-87
2024/04/07 12:43:57;;;;;;;1.10;0.30;;;;;;;27.14;46.17;100292.15;109223;1265;23288;-86
2024/04/07 12:46:48;;;;;;;1.60;0.20;;;;;;;27.18;45.12;100299.84;109417;1265;24183;-87
2024/04/07 12:49:38;;;;;;;1.30;0.40;;;;;;;27.23;43.97;100302.83;109254;1265;25482;-86
2024/04/07 12:52:29;;;;;;;1.00;0.30;;;;;;;27.26;43.06;100305.35;109217;1265;25348;-86
2024/04/07 12:55:20;;;;;;;3.30;0.40;;;;;;;27.28;42.64;100307.23;109185;1265;22537;-86
2024/04/07 12:58:10;;;;;;;1.90;0.30;;;;;;;27.30;42.26;100302.77;109408;1260;22602;-86
2024/04/07 13:01:02;;;;;;;2.10;0.60;;;;;;;27.34;41.83;100307.42;109287;1266;22625;-86
2024/04/07 13:03:52;;;;;;;2.90;0.40;;;;;;;27.39;40.73;100305.08;109289;1266;22579;-85
2024/04/07 13:06:44;;;;;;;2.00;0.40;;;;;;;27.44;40.41;100302.61;109126;1265;23244;-84
2024/04/07 13:09:35;;;;;;;2.30;0.30;;;;;;;27.50;39.86;100296.84;109094;1266;24334;-86
2024/04/07 13:12:25;;;;;;;4.60;0.40;;;;;;;27.57;39.62;100295.66;109496;1260;22543;-81